sensor_id;sensor_type;location;lat;lon;timestamp;pressure;altitude;pressure_sealevel;temperature;humidity
31403;BME280;18039;52.188;21.024;2022-09-30T00:01:14;76584.78;;;-141.45;96.81
31403;BME280;18039;52.188;21.024;2022-09-30T00:03:43;76580.72;;;-141.45;96.90
31403;BME280;18039;52.188;21.024;2022-09-30T00:06:10;76588.84;;;-141.45;96.92
31403;BME280;18039;52.188;21.024;2022-09-30T00:08:37;76586.81;;;-141.45;96.92
31403;BME280;18039;52.188;21.024;2022-09-30T00:11:06;76584.78;;;-141.45;96.99
31403;BME280;18039;52.188;21.024;2022-09-30T00:13:36;76580.72;;;-141.45;97.13
31403;BME280;18039;52.188;21.024;2022-09-30T00:16:03;76588.84;;;-141.45;96.84
31403;BME280;18039;52.188;21.024;2022-09-30T00:18:31;76588.84;;;-141.45;97.00
31403;BME280;18039;52.188;21.024;2022-09-30T00:20:58;76596.94;;;-141.45;96.96
31403;BME280;18039;52.188;21.024;2022-09-30T00:23:25;76596.94;;;-141.45;97.39
31403;BME280;18039;52.188;21.024;2022-09-30T00:26:00;76592.91;;;-141.45;97.68
31403;BME280;18039;52.188;21.024;2022-09-30T00:28:28;76588.84;;;-141.45;97.95
31403;BME280;18039;52.188;21.024;2022-09-30T00:31:01;76580.72;;;-141.45;98.13
31403;BME280;18039;52.188;21.024;2022-09-30T00:33:28;76568.56;;;-141.45;98.30
31403;BME280;18039;52.188;21.024;2022-09-30T00:35:56;76576.69;;;-141.45;98.58
31403;BME280;18039;52.188;21.024;2022-09-30T00:38:23;76576.69;;;-141.45;98.46
31403;BME280;18039;52.188;21.024;2022-09-30T00:40:50;76613.16;;;-141.45;98.26
31403;BME280;18039;52.188;21.024;2022-09-30T00:43:36;76588.84;;;-141.45;98.04
31403;BME280;18039;52.188;21.024;2022-09-30T00:46:04;76582.75;;;-141.45;98.01
31403;BME280;18039;52.188;21.024;2022-09-30T00:48:37;76584.78;;;-141.45;97.84
31403;BME280;18039;52.188;21.024;2022-09-30T00:51:06;76590.88;;;-141.45;97.67
31403;BME280;18039;52.188;21.024;2022-09-30T00:53:44;76592.91;;;-141.45;97.64
31403;BME280;18039;52.188;21.024;2022-09-30T00:56:20;76594.91;;;-141.45;97.84
31403;BME280;18039;52.188;21.024;2022-09-30T01:01:48;76605.06;;;-141.45;97.95
31403;BME280;18039;52.188;21.024;2022-09-30T01:04:18;76607.09;;;-141.45;97.95
31403;BME280;18039;52.188;21.024;2022-09-30T01:06:48;76605.06;;;-141.45;97.85
31403;BME280;18039;52.188;21.024;2022-09-30T01:09:16;76611.13;;;-141.45;97.84
31403;BME280;18039;52.188;21.024;2022-09-30T01:11:44;76609.09;;;-141.45;97.90
31403;BME280;18039;52.188;21.024;2022-09-30T01:14:17;76613.16;;;-141.45;97.87
31403;BME280;18039;52.188;21.024;2022-09-30T01:16:54;76607.09;;;-141.45;97.99
31403;BME280;18039;52.188;21.024;2022-09-30T01:28:25;76613.16;;;-141.45;97.96
31403;BME280;18039;52.188;21.024;2022-09-30T01:36:42;76633.44;;;-141.45;97.96
31403;BME280;18039;52.188;21.024;2022-09-30T01:39:48;76633.44;;;-141.45;98.26
31403;BME280;18039;52.188;21.024;2022-09-30T01:42:22;76637.50;;;-141.45;98.34
31403;BME280;18039;52.188;21.024;2022-09-30T01:45:17;76641.53;;;-141.45;98.30
31403;BME280;18039;52.188;21.024;2022-09-30T01:51:07;76661.81;;;-141.45;98.16
31403;BME280;18039;52.188;21.024;2022-09-30T01:53:44;76657.75;;;-141.45;98.30
31403;BME280;18039;52.188;21.024;2022-09-30T01:56:17;76657.75;;;-141.45;98.19
31403;BME280;18039;52.188;21.024;2022-09-30T01:58:56;76661.81;;;-141.45;98.25
31403;BME280;18039;52.188;21.024;2022-09-30T02:01:39;76661.81;;;-141.45;97.92
31403;BME280;18039;52.188;21.024;2022-09-30T02:04:14;76669.94;;;-141.45;97.84
31403;BME280;18039;52.188;21.024;2022-09-30T02:06:44;76676.00;;;-141.45;97.39
31403;BME280;18039;52.188;21.024;2022-09-30T02:09:20;76692.22;;;-141.45;96.99
31403;BME280;18039;52.188;21.024;2022-09-30T02:11:50;76702.34;;;-141.45;96.77
31403;BME280;18039;52.188;21.024;2022-09-30T02:14:27;76710.47;;;-141.45;96.86
31403;BME280;18039;52.188;21.024;2022-09-30T02:17:05;76730.75;;;-141.45;96.86
31403;BME280;18039;52.188;21.024;2022-09-30T02:19:40;76738.84;;;-141.45;96.60
31403;BME280;18039;52.188;21.024;2022-09-30T02:22:16;76755.06;;;-141.45;96.80
31403;BME280;18039;52.188;21.024;2022-09-30T02:24:46;76763.16;;;-141.45;96.67
31403;BME280;18039;52.188;21.024;2022-09-30T02:27:20;76767.22;;;-141.45;96.81
31403;BME280;18039;52.188;21.024;2022-09-30T02:29:52;76783.44;;;-141.45;96.91
31403;BME280;18039;52.188;21.024;2022-09-30T02:32:30;76791.56;;;-141.45;96.97
31403;BME280;18039;52.188;21.024;2022-09-30T02:35:09;76785.47;;;-141.45;97.14
31403;BME280;18039;52.188;21.024;2022-09-30T02:37:40;76781.41;;;-141.45;97.06
31403;BME280;18039;52.188;21.024;2022-09-30T02:40:18;76781.41;;;-141.45;97.05
31403;BME280;18039;52.188;21.024;2022-09-30T02:42:47;76787.50;;;-141.45;96.97
31403;BME280;18039;52.188;21.024;2022-09-30T02:45:19;76783.44;;;-141.45;97.05
31403;BME280;18039;52.188;21.024;2022-09-30T02:50:39;76803.72;;;-141.45;96.74
31403;BME280;18039;52.188;21.024;2022-09-30T02:53:25;76803.72;;;-141.45;96.54
31403;BME280;18039;52.188;21.024;2022-09-30T02:58:52;76811.81;;;-141.45;96.23
31403;BME280;18039;52.188;21.024;2022-09-30T03:01:23;76811.81;;;-141.45;96.17
31403;BME280;18039;52.188;21.024;2022-09-30T03:03:56;76811.81;;;-141.45;96.16
31403;BME280;18039;52.188;21.024;2022-09-30T03:06:25;76819.94;;;-141.45;96.20
31403;BME280;18039;52.188;21.024;2022-09-30T03:08:53;76828.03;;;-141.45;96.29
31403;BME280;18039;52.188;21.024;2022-09-30T03:11:23;76836.16;;;-141.45;96.36
31403;BME280;18039;52.188;21.024;2022-09-30T03:14:16;76832.09;;;-141.45;96.70
31403;BME280;18039;52.188;21.024;2022-09-30T03:30:50;76844.25;;;-141.45;97.32
31403;BME280;18039;52.188;21.024;2022-09-30T03:33:32;76836.16;;;-141.45;97.41
31403;BME280;18039;52.188;21.024;2022-09-30T03:36:10;76834.13;;;-141.45;97.32
31403;BME280;18039;52.188;21.024;2022-09-30T03:38:52;76830.06;;;-141.45;96.87
31403;BME280;18039;52.188;21.024;2022-09-30T03:44:22;76836.16;;;-141.45;96.83
31403;BME280;18039;52.188;21.024;2022-09-30T03:46:55;76828.03;;;-141.45;97.09
31403;BME280;18039;52.188;21.024;2022-09-30T03:49:27;76828.03;;;-141.45;97.00
31403;BME280;18039;52.188;21.024;2022-09-30T03:51:58;76824.00;;;-141.45;96.89
31403;BME280;18039;52.188;21.024;2022-09-30T03:54:25;76824.00;;;-141.45;96.78
31403;BME280;18039;52.188;21.024;2022-09-30T03:56:52;76828.03;;;-141.45;96.90
31403;BME280;18039;52.188;21.024;2022-09-30T03:59:25;76832.09;;;-141.45;96.93
31403;BME280;18039;52.188;21.024;2022-09-30T04:01:54;76824.00;;;-141.45;96.83
31403;BME280;18039;52.188;21.024;2022-09-30T04:04:24;76824.00;;;-141.45;96.97
31403;BME280;18039;52.188;21.024;2022-09-30T04:06:50;76828.03;;;-141.45;96.80
31403;BME280;18039;52.188;21.024;2022-09-30T04:09:17;76826.00;;;-141.45;96.60
31403;BME280;18039;52.188;21.024;2022-09-30T04:11:45;76830.06;;;-141.45;96.56
31403;BME280;18039;52.188;21.024;2022-09-30T04:14:11;76836.16;;;-141.45;96.42
31403;BME280;18039;52.188;21.024;2022-09-30T04:16:38;76840.22;;;-141.45;96.40
31403;BME280;18039;52.188;21.024;2022-09-30T04:19:05;76844.25;;;-141.45;96.47
31403;BME280;18039;52.188;21.024;2022-09-30T04:21:32;76852.38;;;-141.45;96.55
31403;BME280;18039;52.188;21.024;2022-09-30T04:23:59;76856.44;;;-141.45;96.44
31403;BME280;18039;52.188;21.024;2022-09-30T04:26:27;76862.50;;;-141.45;96.35
31403;BME280;18039;52.188;21.024;2022-09-30T04:28:54;76864.53;;;-141.45;96.20
31403;BME280;18039;52.188;21.024;2022-09-30T04:31:24;76864.53;;;-141.45;96.43
31403;BME280;18039;52.188;21.024;2022-09-30T04:33:51;76868.59;;;-141.45;96.15
31403;BME280;18039;52.188;21.024;2022-09-30T04:36:18;76876.69;;;-141.45;96.13
31403;BME280;18039;52.188;21.024;2022-09-30T04:38:45;76884.81;;;-141.45;95.97
31403;BME280;18039;52.188;21.024;2022-09-30T04:41:14;76884.81;;;-141.45;95.87
31403;BME280;18039;52.188;21.024;2022-09-30T04:43:44;76888.88;;;-141.45;95.99
31403;BME280;18039;52.188;21.024;2022-09-30T04:46:18;76892.91;;;-141.45;95.72
31403;BME280;18039;52.188;21.024;2022-09-30T04:48:46;76899.00;;;-141.45;95.80
31403;BME280;18039;52.188;21.024;2022-09-30T04:51:20;76890.88;;;-141.45;95.86
31403;BME280;18039;52.188;21.024;2022-09-30T04:53:48;76888.88;;;-141.45;95.87
31403;BME280;18039;52.188;21.024;2022-09-30T04:56:33;76892.91;;;-141.45;95.74
31403;BME280;18039;52.188;21.024;2022-09-30T04:59:00;76892.91;;;-141.45;96.02
31403;BME280;18039;52.188;21.024;2022-09-30T05:01:27;76894.94;;;-141.45;95.99
31403;BME280;18039;52.188;21.024;2022-09-30T05:03:54;76888.88;;;-141.45;95.99
31403;BME280;18039;52.188;21.024;2022-09-30T05:06:21;76888.88;;;-141.45;96.10
31403;BME280;18039;52.188;21.024;2022-09-30T05:08:48;76888.88;;;-141.45;96.39
31403;BME280;18039;52.188;21.024;2022-09-30T05:11:17;76884.81;;;-141.45;96.22
31403;BME280;18039;52.188;21.024;2022-09-30T05:13:45;76882.78;;;-141.45;96.33
31403;BME280;18039;52.188;21.024;2022-09-30T05:16:14;76866.56;;;-141.45;96.51
31403;BME280;18039;52.188;21.024;2022-09-30T05:18:42;76860.47;;;-141.45;96.73
31403;BME280;18039;52.188;21.024;2022-09-30T05:21:13;76856.44;;;-141.45;96.53
31403;BME280;18039;52.188;21.024;2022-09-30T05:23:41;76854.41;;;-141.45;96.29
31403;BME280;18039;52.188;21.024;2022-09-30T05:26:08;76840.22;;;-141.45;95.96
31403;BME280;18039;52.188;21.024;2022-09-30T05:28:40;76840.22;;;-141.45;95.92
31403;BME280;18039;52.188;21.024;2022-09-30T05:31:07;76844.25;;;-141.45;95.74
31403;BME280;18039;52.188;21.024;2022-09-30T05:33:34;76852.38;;;-141.45;95.69
31403;BME280;18039;52.188;21.024;2022-09-30T05:36:05;76858.44;;;-141.45;95.76
31403;BME280;18039;52.188;21.024;2022-09-30T05:38:32;76860.47;;;-141.45;95.30
31403;BME280;18039;52.188;21.024;2022-09-30T05:41:13;76866.56;;;-141.45;95.85
31403;BME280;18039;52.188;21.024;2022-09-30T05:43:42;76870.63;;;-141.45;96.15
31403;BME280;18039;52.188;21.024;2022-09-30T05:46:11;76868.59;;;-141.45;96.41
31403;BME280;18039;52.188;21.024;2022-09-30T05:48:38;76870.63;;;-141.45;96.50
31403;BME280;18039;52.188;21.024;2022-09-30T05:51:06;76862.50;;;-141.45;96.49
31403;BME280;18039;52.188;21.024;2022-09-30T05:53:35;76868.59;;;-141.45;96.51
31403;BME280;18039;52.188;21.024;2022-09-30T05:56:06;76854.41;;;-141.45;96.22
31403;BME280;18039;52.188;21.024;2022-09-30T05:58:34;76856.44;;;-141.45;96.27
31403;BME280;18039;52.188;21.024;2022-09-30T06:01:13;76864.53;;;-141.45;95.74
31403;BME280;18039;52.188;21.024;2022-09-30T06:03:42;76864.53;;;-141.45;95.72
31403;BME280;18039;52.188;21.024;2022-09-30T06:06:09;76868.59;;;-141.45;96.24
31403;BME280;18039;52.188;21.024;2022-09-30T06:08:36;76880.75;;;-141.45;96.32
31403;BME280;18039;52.188;21.024;2022-09-30T06:11:09;76876.69;;;-141.45;96.42
31403;BME280;18039;52.188;21.024;2022-09-30T06:13:39;76876.69;;;-141.45;96.37
31403;BME280;18039;52.188;21.024;2022-09-30T06:16:07;76880.75;;;-141.45;96.54
31403;BME280;18039;52.188;21.024;2022-09-30T06:18:35;76880.75;;;-141.45;96.45
31403;BME280;18039;52.188;21.024;2022-09-30T06:21:03;76884.81;;;-141.45;96.21
31403;BME280;18039;52.188;21.024;2022-09-30T06:23:31;76884.81;;;-141.45;96.20
31403;BME280;18039;52.188;21.024;2022-09-30T06:26:03;76884.81;;;-141.45;96.60
31403;BME280;18039;52.188;21.024;2022-09-30T06:28:30;76880.75;;;-141.45;96.97
31403;BME280;18039;52.188;21.024;2022-09-30T06:31:02;76878.72;;;-141.45;96.89
31403;BME280;18039;52.188;21.024;2022-09-30T06:33:29;76876.69;;;-141.45;96.82
31403;BME280;18039;52.188;21.024;2022-09-30T06:35:58;76872.66;;;-141.45;97.24
31403;BME280;18039;52.188;21.024;2022-09-30T06:38:25;76868.59;;;-141.45;97.02
31403;BME280;18039;52.188;21.024;2022-09-30T06:40:54;76852.38;;;-141.45;97.24
31403;BME280;18039;52.188;21.024;2022-09-30T06:43:22;76852.38;;;-141.45;97.30
31403;BME280;18039;52.188;21.024;2022-09-30T06:45:49;76840.22;;;-141.45;97.21
31403;BME280;18039;52.188;21.024;2022-09-30T06:48:17;76838.19;;;-141.45;96.68
31403;BME280;18039;52.188;21.024;2022-09-30T06:51:01;76836.16;;;-141.45;96.67
31403;BME280;18039;52.188;21.024;2022-09-30T06:53:28;76821.97;;;-141.45;96.97
31403;BME280;18039;52.188;21.024;2022-09-30T06:55:56;76795.59;;;-141.45;97.14
31403;BME280;18039;52.188;21.024;2022-09-30T06:58:23;76773.31;;;-141.45;97.00
31403;BME280;18039;52.188;21.024;2022-09-30T07:01:01;76759.13;;;-141.45;96.54
31403;BME280;18039;52.188;21.024;2022-09-30T07:03:31;76755.06;;;-141.45;95.80
31403;BME280;18039;52.188;21.024;2022-09-30T07:06:02;76744.94;;;-141.45;95.53
31403;BME280;18039;52.188;21.024;2022-09-30T07:08:30;76746.97;;;-141.45;95.12
31403;BME280;18039;52.188;21.024;2022-09-30T07:10:59;76744.94;;;-141.45;95.25
31403;BME280;18039;52.188;21.024;2022-09-30T07:13:27;76746.97;;;-141.45;95.53
31403;BME280;18039;52.188;21.024;2022-09-30T07:15:54;76746.97;;;-141.45;95.63
31403;BME280;18039;52.188;21.024;2022-09-30T07:18:24;76738.84;;;-141.45;95.55
31403;BME280;18039;52.188;21.024;2022-09-30T07:20:55;76742.91;;;-141.45;95.27
31403;BME280;18039;52.188;21.024;2022-09-30T07:23:22;76736.81;;;-141.45;95.43
31403;BME280;18039;52.188;21.024;2022-09-30T07:25:57;76734.78;;;-141.45;95.45
31403;BME280;18039;52.188;21.024;2022-09-30T07:28:28;76726.69;;;-141.45;95.97
31403;BME280;18039;52.188;21.024;2022-09-30T07:31:00;76722.63;;;-141.45;95.87
31403;BME280;18039;52.188;21.024;2022-09-30T07:33:49;76710.47;;;-141.45;95.88
31403;BME280;18039;52.188;21.024;2022-09-30T07:36:22;76698.31;;;-141.45;95.61
31403;BME280;18039;52.188;21.024;2022-09-30T07:38:59;76694.25;;;-141.45;95.29
31403;BME280;18039;52.188;21.024;2022-09-30T07:41:33;76678.03;;;-141.45;95.31
31403;BME280;18039;52.188;21.024;2022-09-30T07:44:02;76669.94;;;-141.45;95.69
31403;BME280;18039;52.188;21.024;2022-09-30T07:46:31;76661.81;;;-141.45;95.42
31403;BME280;18039;52.188;21.024;2022-09-30T07:48:59;76659.78;;;-141.45;95.54
31403;BME280;18039;52.188;21.024;2022-09-30T07:51:34;76661.81;;;-141.45;95.62
31403;BME280;18039;52.188;21.024;2022-09-30T07:54:08;76637.50;;;-141.45;95.92
31403;BME280;18039;52.188;21.024;2022-09-30T07:56:35;76617.22;;;-141.45;95.79
31403;BME280;18039;52.188;21.024;2022-09-30T07:59:25;76609.09;;;-141.45;95.73
31403;BME280;18039;52.188;21.024;2022-09-30T08:01:53;76592.91;;;-141.45;95.57
31403;BME280;18039;52.188;21.024;2022-09-30T08:04:21;76588.84;;;-141.45;95.50
31403;BME280;18039;52.188;21.024;2022-09-30T08:07:00;76576.69;;;-141.45;95.52
31403;BME280;18039;52.188;21.024;2022-09-30T08:09:29;76572.63;;;-141.45;95.57
31403;BME280;18039;52.188;21.024;2022-09-30T08:11:57;76556.41;;;-141.45;95.29
31403;BME280;18039;52.188;21.024;2022-09-30T08:14:25;76556.41;;;-141.45;94.59
31403;BME280;18039;52.188;21.024;2022-09-30T08:16:53;76548.31;;;-141.45;94.57
31403;BME280;18039;52.188;21.024;2022-09-30T08:19:24;76540.19;;;-141.45;94.88
31403;BME280;18039;52.188;21.024;2022-09-30T08:21:51;76515.88;;;-141.45;94.83
31403;BME280;18039;52.188;21.024;2022-09-30T08:24:20;76495.59;;;-141.45;94.59
31403;BME280;18039;52.188;21.024;2022-09-30T08:26:48;76481.41;;;-141.45;94.70
31403;BME280;18039;52.188;21.024;2022-09-30T08:29:15;76455.06;;;-141.45;94.27
31403;BME280;18039;52.188;21.024;2022-09-30T08:31:51;76434.78;;;-141.45;93.90
31403;BME280;18039;52.188;21.024;2022-09-30T08:34:18;76406.41;;;-141.45;93.46
31403;BME280;18039;52.188;21.024;2022-09-30T08:36:45;76394.25;;;-141.45;92.82
31403;BME280;18039;52.188;21.024;2022-09-30T08:39:13;76369.91;;;-141.45;92.17
31403;BME280;18039;52.188;21.024;2022-09-30T08:42:06;76361.81;;;-141.45;91.58
31403;BME280;18039;52.188;21.024;2022-09-30T08:45:30;76365.88;;;-141.45;88.80
31403;BME280;18039;52.188;21.024;2022-09-30T08:48:19;76353.72;;;-141.45;89.90
31403;BME280;18039;52.188;21.024;2022-09-30T08:51:08;76337.50;;;-141.45;89.68
31403;BME280;18039;52.188;21.024;2022-09-30T08:53:42;76335.47;;;-141.45;88.69
31403;BME280;18039;52.188;21.024;2022-09-30T08:56:19;76329.38;;;-141.45;88.36
31403;BME280;18039;52.188;21.024;2022-09-30T08:58:49;76321.28;;;-141.45;88.30
31403;BME280;18039;52.188;21.024;2022-09-30T09:01:31;76309.13;;;-141.45;88.63
31403;BME280;18039;52.188;21.024;2022-09-30T09:04:00;76307.09;;;-141.45;88.24
31403;BME280;18039;52.188;21.024;2022-09-30T09:06:57;76296.94;;;-141.45;87.94
31403;BME280;18039;52.188;21.024;2022-09-30T09:15:11;76282.75;;;-141.45;87.02
31403;BME280;18039;52.188;21.024;2022-09-30T09:20:55;76276.69;;;-141.45;85.70
31403;BME280;18039;52.188;21.024;2022-09-30T09:23:23;76272.63;;;-141.45;85.28
31403;BME280;18039;52.188;21.024;2022-09-30T09:25:51;76264.53;;;-141.45;85.17
31403;BME280;18039;52.188;21.024;2022-09-30T09:28:36;76244.25;;;-141.45;84.76
31403;BME280;18039;52.188;21.024;2022-09-30T09:31:11;76236.16;;;-141.45;84.25
31403;BME280;18039;52.188;21.024;2022-09-30T09:33:40;76232.09;;;-141.45;82.72
31403;BME280;18039;52.188;21.024;2022-09-30T09:41:51;76183.44;;;-141.45;81.41
31403;BME280;18039;52.188;21.024;2022-09-30T09:44:40;76171.28;;;-141.45;81.29
31403;BME280;18039;52.188;21.024;2022-09-30T09:47:10;76169.25;;;-141.45;80.62
31403;BME280;18039;52.188;21.024;2022-09-30T09:49:44;76163.19;;;-141.45;80.02
31403;BME280;18039;52.188;21.024;2022-09-30T09:52:18;76167.22;;;-141.45;78.23
31403;BME280;18039;52.188;21.024;2022-09-30T09:54:52;76169.25;;;-141.45;78.17
31403;BME280;18039;52.188;21.024;2022-09-30T09:57:27;76165.19;;;-141.45;78.07
31403;BME280;18039;52.188;21.024;2022-09-30T10:00:04;76163.19;;;-141.45;78.23
31403;BME280;18039;52.188;21.024;2022-09-30T10:03:24;76151.00;;;-141.45;78.85
31403;BME280;18039;52.188;21.024;2022-09-30T10:06:07;76155.06;;;-141.45;78.77
31403;BME280;18039;52.188;21.024;2022-09-30T10:08:51;76151.00;;;-141.45;79.12
31403;BME280;18039;52.188;21.024;2022-09-30T10:11:22;76155.06;;;-141.45;78.69
31403;BME280;18039;52.188;21.024;2022-09-30T10:13:53;76159.13;;;-141.45;78.90
31403;BME280;18039;52.188;21.024;2022-09-30T10:16:33;76167.22;;;-141.45;79.59
31403;BME280;18039;52.188;21.024;2022-09-30T10:19:18;76155.06;;;-141.45;79.89
31403;BME280;18039;52.188;21.024;2022-09-30T10:21:46;76146.97;;;-141.45;79.75
31403;BME280;18039;52.188;21.024;2022-09-30T10:24:30;76146.97;;;-141.45;78.59
31403;BME280;18039;52.188;21.024;2022-09-30T10:26:57;76151.00;;;-141.45;78.09
31403;BME280;18039;52.188;21.024;2022-09-30T10:31:53;76134.78;;;-141.45;78.54
31403;BME280;18039;52.188;21.024;2022-09-30T10:34:37;76126.69;;;-141.45;77.76
31403;BME280;18039;52.188;21.024;2022-09-30T10:37:13;76116.56;;;-141.45;76.39
31403;BME280;18039;52.188;21.024;2022-09-30T10:39:57;76110.47;;;-141.45;75.78
31403;BME280;18039;52.188;21.024;2022-09-30T10:42:30;76102.38;;;-141.45;75.84
31403;BME280;18039;52.188;21.024;2022-09-30T10:45:34;76094.25;;;-141.45;75.39
31403;BME280;18039;52.188;21.024;2022-09-30T10:48:07;76086.16;;;-141.45;74.87
31403;BME280;18039;52.188;21.024;2022-09-30T10:50:49;76082.09;;;-141.45;74.31
31403;BME280;18039;52.188;21.024;2022-09-30T10:53:28;76074.00;;;-141.45;74.44
31403;BME280;18039;52.188;21.024;2022-09-30T10:55:57;76069.94;;;-141.45;72.97
31403;BME280;18039;52.188;21.024;2022-09-30T11:03:37;76049.69;;;-141.45;71.70
31403;BME280;18039;52.188;21.024;2022-09-30T11:06:08;76033.47;;;-141.45;71.67
31403;BME280;18039;52.188;21.024;2022-09-30T11:08:52;76029.41;;;-141.45;70.87
31403;BME280;18039;52.188;21.024;2022-09-30T11:11:27;76029.41;;;-141.45;69.45
31403;BME280;18039;52.188;21.024;2022-09-30T11:14:22;76025.34;;;-141.45;69.12
31403;BME280;18039;52.188;21.024;2022-09-30T11:17:08;76019.28;;;-141.45;69.92
31403;BME280;18039;52.188;21.024;2022-09-30T11:20:05;76021.31;;;-141.45;68.38
31403;BME280;18039;52.188;21.024;2022-09-30T11:23:03;76021.31;;;-141.45;68.07
31403;BME280;18039;52.188;21.024;2022-09-30T11:25:41;76013.19;;;-141.45;68.47
31403;BME280;18039;52.188;21.024;2022-09-30T11:28:31;76017.25;;;-141.45;68.06
31403;BME280;18039;52.188;21.024;2022-09-30T11:31:32;76017.25;;;-141.45;67.93
31403;BME280;18039;52.188;21.024;2022-09-30T11:42:31;76025.34;;;-141.45;69.08
31403;BME280;18039;52.188;21.024;2022-09-30T11:45:24;76025.34;;;-141.45;69.30
31403;BME280;18039;52.188;21.024;2022-09-30T11:50:51;76001.03;;;-141.45;68.06
31403;BME280;18039;52.188;21.024;2022-09-30T11:53:36;75992.94;;;-141.45;68.32
31403;BME280;18039;52.188;21.024;2022-09-30T11:56:10;75990.91;;;-141.45;68.23
31403;BME280;18039;52.188;21.024;2022-09-30T11:58:48;76001.03;;;-141.45;67.22
31403;BME280;18039;52.188;21.024;2022-09-30T12:01:28;76021.31;;;-141.45;67.55
31403;BME280;18039;52.188;21.024;2022-09-30T12:04:44;76021.31;;;-141.45;66.88
31403;BME280;18039;52.188;21.024;2022-09-30T12:06:54;76023.31;;;-141.45;67.56
31403;BME280;18039;52.188;21.024;2022-09-30T12:09:31;76021.31;;;-141.45;67.71
31403;BME280;18039;52.188;21.024;2022-09-30T12:12:05;76021.31;;;-141.45;68.35
31403;BME280;18039;52.188;21.024;2022-09-30T12:15:11;76017.25;;;-141.45;68.68
31403;BME280;18039;52.188;21.024;2022-09-30T12:17:45;76009.13;;;-141.45;68.15
31403;BME280;18039;52.188;21.024;2022-09-30T12:20:29;76009.13;;;-141.45;67.96
31403;BME280;18039;52.188;21.024;2022-09-30T12:23:15;76005.09;;;-141.45;68.01
31403;BME280;18039;52.188;21.024;2022-09-30T12:25:51;76009.13;;;-141.45;67.40
31403;BME280;18039;52.188;21.024;2022-09-30T12:28:28;76005.09;;;-141.45;67.11
31403;BME280;18039;52.188;21.024;2022-09-30T12:37:43;75980.75;;;-141.45;67.68
31403;BME280;18039;52.188;21.024;2022-09-30T12:48:58;75948.34;;;-141.45;66.99
31403;BME280;18039;52.188;21.024;2022-09-30T12:51:33;75948.34;;;-141.45;67.08
31403;BME280;18039;52.188;21.024;2022-09-30T12:54:05;75944.28;;;-141.45;66.69
31403;BME280;18039;52.188;21.024;2022-09-30T12:56:42;75946.31;;;-141.45;66.78
31403;BME280;18039;52.188;21.024;2022-09-30T12:59:11;75944.28;;;-141.45;66.97
31403;BME280;18039;52.188;21.024;2022-09-30T13:01:40;75944.28;;;-141.45;66.88
31403;BME280;18039;52.188;21.024;2022-09-30T13:09:18;75944.28;;;-141.45;66.77
31403;BME280;18039;52.188;21.024;2022-09-30T13:19:50;75948.34;;;-141.45;62.51
31403;BME280;18039;52.188;21.024;2022-09-30T13:27:43;75960.50;;;-141.45;62.04
31403;BME280;18039;52.188;21.024;2022-09-30T13:32:42;75960.50;;;-141.45;60.49
31403;BME280;18039;52.188;21.024;2022-09-30T13:40:58;75968.59;;;-141.45;61.18
31403;BME280;18039;52.188;21.024;2022-09-30T13:43:33;75976.72;;;-141.45;61.08
31403;BME280;18039;52.188;21.024;2022-09-30T13:46:39;75988.88;;;-141.45;61.55
31403;BME280;18039;52.188;21.024;2022-09-30T13:49:16;76005.09;;;-141.45;61.89
31403;BME280;18039;52.188;21.024;2022-09-30T13:51:46;76001.03;;;-141.45;61.98
31403;BME280;18039;52.188;21.024;2022-09-30T13:54:35;76005.09;;;-141.45;62.35
31403;BME280;18039;52.188;21.024;2022-09-30T13:57:09;75988.88;;;-141.45;62.63
31403;BME280;18039;52.188;21.024;2022-09-30T13:59:44;75999.00;;;-141.45;62.22
31403;BME280;18039;52.188;21.024;2022-09-30T14:10:33;76013.19;;;-141.45;63.49
31403;BME280;18039;52.188;21.024;2022-09-30T14:15:48;76025.34;;;-141.45;64.16
31403;BME280;18039;52.188;21.024;2022-09-30T14:18:36;76025.34;;;-141.45;64.69
31403;BME280;18039;52.188;21.024;2022-09-30T14:24:21;76041.56;;;-141.45;65.76
31403;BME280;18039;52.188;21.024;2022-09-30T14:30:04;76037.50;;;-141.45;66.32
31403;BME280;18039;52.188;21.024;2022-09-30T14:32:43;76041.56;;;-141.45;66.89
31403;BME280;18039;52.188;21.024;2022-09-30T14:35:18;76045.63;;;-141.45;66.95
31403;BME280;18039;52.188;21.024;2022-09-30T14:37:59;76045.63;;;-141.45;67.50
31403;BME280;18039;52.188;21.024;2022-09-30T14:40:35;76053.72;;;-141.45;67.67
31403;BME280;18039;52.188;21.024;2022-09-30T14:43:07;76061.84;;;-141.45;67.95
31403;BME280;18039;52.188;21.024;2022-09-30T14:45:42;76065.88;;;-141.45;68.42
31403;BME280;18039;52.188;21.024;2022-09-30T14:48:18;76065.88;;;-141.45;68.30
31403;BME280;18039;52.188;21.024;2022-09-30T14:50:55;76063.88;;;-141.45;68.03
31403;BME280;18039;52.188;21.024;2022-09-30T14:53:28;76067.91;;;-141.45;68.04
31403;BME280;18039;52.188;21.024;2022-09-30T14:55:56;76065.88;;;-141.45;67.96
31403;BME280;18039;52.188;21.024;2022-09-30T14:58:29;76082.09;;;-141.45;67.94
31403;BME280;18039;52.188;21.024;2022-09-30T15:03:26;76088.19;;;-141.45;68.66
31403;BME280;18039;52.188;21.024;2022-09-30T15:05:55;76090.22;;;-141.45;69.16
31403;BME280;18039;52.188;21.024;2022-09-30T15:08:24;76090.22;;;-141.45;69.41
31403;BME280;18039;52.188;21.024;2022-09-30T15:10:53;76094.25;;;-141.45;68.82
31403;BME280;18039;52.188;21.024;2022-09-30T15:13:24;76096.28;;;-141.45;68.78
31403;BME280;18039;52.188;21.024;2022-09-30T15:15:52;76102.38;;;-141.45;68.82
31403;BME280;18039;52.188;21.024;2022-09-30T15:18:42;76102.38;;;-141.45;68.67
31403;BME280;18039;52.188;21.024;2022-09-30T15:21:13;76100.34;;;-141.45;68.79
31403;BME280;18039;52.188;21.024;2022-09-30T15:23:44;76104.41;;;-141.45;68.72